Time;durP1;ratioP1;P1;durP2;ratioP2;P2;SDS_P1;SDS_P2;PMS_P1;PMS_P2;Temp;Humidity;BMP_temperature;BMP_pressure;BME280_temperature;BME280_humidity;BME280_pressure;Samples;Min_cycle;Max_cycle;Signal;HPM_P1;HPM_P2
2021/09/26 02:45:26;;;;;;;17.80;13.80;;;13.70;97.60;;;;;;5785155;24;20033;31
2021/09/26 02:48:17;;;;;;;20.23;14.55;;;13.60;97.50;;;;;;4729295;30;20059;-84
2021/09/26 02:50:45;;;;;;;18.95;15.13;;;13.60;97.40;;;;;;4725961;30;20247;-81
2021/09/26 02:53:13;;;;;;;16.95;13.02;;;13.60;97.50;;;;;;4734455;30;20126;-84
2021/09/26 02:55:41;;;;;;;19.13;14.48;;;13.60;97.50;;;;;;4748919;30;20109;-84
2021/09/26 02:58:07;;;;;;;19.08;14.77;;;13.60;97.60;;;;;;4748906;30;20038;-81
2021/09/26 03:00:43;;;;;;;20.80;14.00;;;13.60;97.60;;;;;;4734185;30;20111;-84
2021/09/26 03:03:30;;;;;;;23.47;14.30;;;13.60;97.60;;;;;;4734720;30;20028;-82
2021/09/26 03:05:56;;;;;;;21.50;15.52;;;13.60;97.50;;;;;;4734184;30;20036;-82
2021/09/26 03:08:23;;;;;;;22.83;13.82;;;13.50;97.50;;;;;;4734621;30;20044;-82
2021/09/26 03:10:54;;;;;;;17.95;13.52;;;13.50;97.60;;;;;;4734122;30;20079;-82
2021/09/26 03:13:20;;;;;;;19.70;13.77;;;13.50;97.50;;;;;;4734230;30;20109;-82
2021/09/26 03:15:46;;;;;;;18.57;14.00;;;13.50;97.40;;;;;;4749518;30;20044;-81
2021/09/26 03:18:13;;;;;;;17.95;13.95;;;13.50;97.40;;;;;;4766133;30;20304;-82
2021/09/26 03:20:38;;;;;;;18.60;14.25;;;13.50;97.40;;;;;;4751511;30;20055;-82
2021/09/26 03:23:04;;;;;;;20.20;14.93;;;13.50;97.40;;;;;;4781957;30;20023;-82
2021/09/26 03:25:30;;;;;;;21.75;14.75;;;13.50;97.40;;;;;;4766449;30;20113;-82
2021/09/26 03:27:56;;;;;;;24.63;18.10;;;13.50;97.40;;;;;;4766604;30;20059;-83
2021/09/26 03:30:22;;;;;;;25.73;15.63;;;13.50;97.40;;;;;;4751763;30;20023;-82
2021/09/26 03:32:48;;;;;;;17.85;14.10;;;13.40;97.40;;;;;;4766157;30;20028;-82
2021/09/26 03:35:14;;;;;;;19.98;15.73;;;13.40;97.40;;;;;;4751568;30;20036;-83
2021/09/26 03:37:41;;;;;;;24.17;18.75;;;13.40;97.30;;;;;;4751713;30;20024;-82
2021/09/26 03:40:11;;;;;;;19.30;14.18;;;13.40;97.40;;;;;;4766415;30;20028;-83
2021/09/26 03:42:37;;;;;;;16.80;13.80;;;13.40;97.40;;;;;;4751389;30;20205;-83
2021/09/26 03:45:04;;;;;;;19.48;14.77;;;13.40;97.30;;;;;;4766169;30;20042;-83
2021/09/26 03:47:31;;;;;;;20.02;15.52;;;13.40;97.20;;;;;;4737208;30;20284;-82
2021/09/26 03:49:57;;;;;;;23.25;18.05;;;13.40;97.20;;;;;;4763232;30;20328;-82
2021/09/26 03:52:23;;;;;;;20.25;16.17;;;13.40;97.30;;;;;;4748464;30;20119;-83
2021/09/26 03:54:51;;;;;;;20.27;15.88;;;13.30;97.60;;;;;;4748688;30;20360;-82
2021/09/26 03:57:18;;;;;;;16.38;12.77;;;13.30;97.60;;;;;;4748734;30;20056;-83
2021/09/26 03:59:44;;;;;;;20.23;16.08;;;13.30;97.50;;;;;;4765227;30;20035;-82
2021/09/26 04:02:10;;;;;;;22.70;15.82;;;13.30;97.50;;;;;;4748557;30;20036;-82
2021/09/26 04:04:36;;;;;;;20.58;15.05;;;13.30;97.80;;;;;;4748186;30;20024;-82
2021/09/26 04:07:02;;;;;;;22.55;16.67;;;13.30;97.60;;;;;;4748609;30;20028;-82
2021/09/26 04:09:28;;;;;;;19.35;15.27;;;13.20;97.50;;;;;;4748468;30;20281;-82
2021/09/26 04:11:53;;;;;;;20.83;14.82;;;13.20;97.50;;;;;;4748466;30;20069;-82
2021/09/26 04:14:19;;;;;;;21.08;15.65;;;13.20;97.50;;;;;;4748370;30;20028;-82
2021/09/26 04:16:49;;;;;;;20.25;15.52;;;13.20;97.60;;;;;;4739858;30;20040;-82
2021/09/26 04:19:16;;;;;;;17.88;14.00;;;13.20;97.60;;;;;;4745487;30;20089;-82
2021/09/26 04:21:43;;;;;;;20.65;16.30;;;13.20;97.50;;;;;;4745615;30;20040;-82
2021/09/26 04:24:09;;;;;;;;;;;13.20;97.50;;;;;;4731222;30;20111;-82
2021/09/26 04:26:34;;;;;;;16.13;13.27;;;13.20;97.50;;;;;;4731421;30;20106;-81
2021/09/26 04:29:00;;;;;;;21.92;15.93;;;13.20;97.50;;;;;;4733906;30;20086;-81
2021/09/26 04:31:26;;;;;;;22.35;15.68;;;13.10;97.90;;;;;;4734089;30;20042;-81
2021/09/26 04:33:52;;;;;;;21.10;15.55;;;13.10;97.90;;;;;;4733848;30;20036;-81
2021/09/26 04:36:18;;;;;;;26.38;17.38;;;13.10;97.80;;;;;;4734221;30;20045;-82
2021/09/26 04:38:43;;;;;;;27.95;20.15;;;13.10;97.80;;;;;;4734049;30;20415;-81
2021/09/26 04:41:09;;;;;;;21.90;16.92;;;13.10;97.90;;;;;;4749755;30;20020;-82
2021/09/26 04:43:35;;;;;;;23.13;17.75;;;13.10;97.90;;;;;;4733613;30;20028;-82
2021/09/26 04:46:01;;;;;;;24.33;16.63;;;13.10;98.10;;;;;;4736628;30;20116;-82
2021/09/26 04:48:27;;;;;;;22.80;18.10;;;13.10;98.00;;;;;;4765876;30;20032;-81
2021/09/26 04:50:53;;;;;;;23.98;17.23;;;13.10;97.90;;;;;;4751332;30;20035;-81
2021/09/26 04:53:19;;;;;;;25.92;17.13;;;13.10;98.20;;;;;;4765869;30;20047;-81
2021/09/26 04:55:44;;;;;;;24.70;17.48;;;13.10;97.90;;;;;;4765872;30;20229;-82
2021/09/26 04:58:10;;;;;;;22.05;16.77;;;13.20;97.90;;;;;;4751444;30;20063;-81
2021/09/26 05:00:37;;;;;;;27.35;19.17;;;13.20;97.70;;;;;;4765796;30;20116;-81
2021/09/26 05:03:03;;;;;;;22.98;18.42;;;13.20;97.80;;;;;;4765632;30;20352;-81
2021/09/26 05:05:29;;;;;;;30.40;20.77;;;13.20;97.70;;;;;;4765974;30;20028;-81
2021/09/26 05:07:55;;;;;;;28.48;18.58;;;13.20;98.10;;;;;;4765889;30;20043;-81
2021/09/26 05:10:22;;;;;;;27.45;19.00;;;13.20;98.00;;;;;;4765868;30;20063;-81
2021/09/26 05:12:48;;;;;;;26.23;19.73;;;13.30;98.10;;;;;;4765741;30;20039;-81
2021/09/26 05:15:14;;;;;;;29.95;19.25;;;13.30;98.20;;;;;;4766158;30;20137;-82
2021/09/26 05:17:40;;;;;;;23.48;18.05;;;13.40;98.30;;;;;;4750883;30;20090;-81
2021/09/26 05:20:07;;;;;;;24.47;17.70;;;13.40;98.30;;;;;;4733554;30;20103;-82
2021/09/26 05:22:33;;;;;;;25.02;19.10;;;13.50;98.20;;;;;;4733156;30;20227;-82
2021/09/26 05:24:59;;;;;;;27.88;19.30;;;13.50;98.20;;;;;;4733648;30;20033;-82
2021/09/26 05:27:25;;;;;;;33.03;25.08;;;13.50;98.30;;;;;;4733324;30;20072;-82
2021/09/26 05:29:51;;;;;;;24.52;18.30;;;13.60;98.50;;;;;;4733428;30;20033;-82
2021/09/26 05:32:17;;;;;;;31.02;23.45;;;13.60;98.50;;;;;;4733690;30;20036;-82
2021/09/26 05:34:43;;;;;;;23.17;17.75;;;13.80;98.70;;;;;;4748039;30;20032;-82
2021/09/26 05:37:08;;;;;;;24.02;18.23;;;13.90;98.50;;;;;;4733775;30;20032;-82
2021/09/26 05:39:34;;;;;;;25.17;18.10;;;14.00;98.30;;;;;;4747255;30;20029;-83
2021/09/26 05:42:06;;;;;;;24.42;18.38;;;14.10;98.00;;;;;;4733713;30;20047;-82
2021/09/26 05:44:33;;;;;;;31.60;23.45;;;14.10;98.00;;;;;;4749248;30;20036;-82
2021/09/26 05:46:59;;;;;;;23.35;18.40;;;14.30;98.20;;;;;;4757713;30;20060;-82
2021/09/26 05:49:25;;;;;;;26.13;17.63;;;14.30;98.20;;;;;;4765426;30;20054;-82
2021/09/26 05:51:51;;;;;;;27.83;21.85;;;14.40;98.00;;;;;;4750536;30;20039;-82
2021/09/26 05:54:18;;;;;;;30.23;23.38;;;14.40;98.00;;;;;;4765041;30;20032;-82
2021/09/26 05:56:44;;;;;;;30.95;24.58;;;14.50;98.40;;;;;;4740960;30;20044;-82
2021/09/26 05:59:10;;;;;;;27.92;21.67;;;14.60;98.20;;;;;;4767400;30;20043;-83
2021/09/26 06:01:35;;;;;;;34.30;26.00;;;14.70;98.80;;;;;;4756412;30;20032;-82
2021/09/26 06:04:01;;;;;;;34.72;23.45;;;14.90;99.30;;;;;;4749313;30;20081;-82
2021/09/26 06:06:27;;;;;;;41.83;29.98;;;15.00;99.40;;;;;;4760280;30;20036;-82
2021/09/26 06:08:53;;;;;;;40.28;27.20;;;15.10;99.40;;;;;;4765617;30;20103;-83
2021/09/26 06:11:19;;;;;;;32.97;24.00;;;15.30;99.80;;;;;;4741149;30;20032;-82
2021/09/26 06:13:45;;;;;;;36.53;25.85;;;15.40;99.80;;;;;;4736696;30;20032;-83
2021/09/26 06:16:10;;;;;;;32.88;25.63;;;15.50;99.90;;;;;;4737038;30;20394;-83
2021/09/26 06:18:36;;;;;;;31.52;24.98;;;15.70;99.90;;;;;;4741237;30;20027;-83
2021/09/26 06:21:02;;;;;;;36.03;24.08;;;15.80;99.90;;;;;;4738414;30;20027;-82
2021/09/26 06:23:28;;;;;;;30.38;22.77;;;15.90;99.90;;;;;;4732684;30;20032;-82
2021/09/26 06:25:54;;;;;;;33.47;21.25;;;16.00;99.80;;;;;;4760863;30;20054;-82
2021/09/26 06:28:20;;;;;;;38.42;24.48;;;16.20;99.30;;;;;;4749964;30;20275;-83
2021/09/26 06:30:46;;;;;;;32.85;22.15;;;16.30;99.20;;;;;;4749403;30;20102;-83
2021/09/26 06:33:15;;;;;;;28.88;21.05;;;16.30;98.80;;;;;;4748135;30;20116;-82
2021/09/26 06:35:41;;;;;;;30.42;21.95;;;16.50;98.60;;;;;;4745200;30;20027;-83
2021/09/26 06:38:07;;;;;;;35.47;23.02;;;16.60;98.30;;;;;;4771043;30;20032;-83
2021/09/26 06:40:33;;;;;;;41.93;28.77;;;16.70;98.30;;;;;;4758983;30;20024;-82
2021/09/26 06:42:59;;;;;;;31.65;24.65;;;16.70;98.30;;;;;;4748696;30;20067;-82
2021/09/26 06:45:25;;;;;;;32.15;23.27;;;16.80;98.20;;;;;;4758822;30;20044;-82
2021/09/26 06:47:51;;;;;;;32.90;24.67;;;16.90;98.40;;;;;;4738004;30;20419;-83
2021/09/26 06:50:17;;;;;;;30.55;23.92;;;17.00;98.10;;;;;;4738107;30;20096;-83
2021/09/26 06:52:43;;;;;;;34.40;24.92;;;17.20;97.90;;;;;;4755548;30;20028;-83
2021/09/26 06:55:09;;;;;;;32.05;24.15;;;17.20;97.90;;;;;;4733809;30;20082;-83
2021/09/26 06:57:35;;;;;;;31.90;24.48;;;17.40;97.70;;;;;;4737814;30;20036;-83
2021/09/26 07:00:03;;;;;;;34.42;22.85;;;17.50;97.20;;;;;;4745081;30;20067;-83
2021/09/26 07:02:29;;;;;;;34.33;24.00;;;17.50;97.30;;;;;;4760996;30;20027;-82
2021/09/26 07:04:55;;;;;;;32.25;23.58;;;17.60;97.20;;;;;;4733951;30;20102;-83
2021/09/26 07:07:23;;;;;;;27.08;22.15;;;17.80;97.20;;;;;;4746709;30;20039;-83
2021/09/26 07:09:50;;;;;;;30.23;22.08;;;17.80;96.90;;;;;;4747887;30;20046;-82
2021/09/26 07:12:17;;;;;;;28.30;20.98;;;17.80;96.90;;;;;;4750903;30;20099;-83
2021/09/26 07:14:43;;;;;;;;;;;17.80;96.90;;;;;;4763643;30;20052;-82
2021/09/26 07:17:10;;;;;;;31.98;21.85;;;18.00;96.70;;;;;;4741718;30;19918;-83
2021/09/26 07:19:35;;;;;;;29.70;21.35;;;18.10;96.30;;;;;;4763180;30;20068;-82
2021/09/26 07:22:10;;;;;;;31.13;21.42;;;18.20;96.30;;;;;;4763049;30;20058;-82
2021/09/26 07:24:36;;;;;;;31.55;21.83;;;18.30;96.10;;;;;;4763232;30;20032;-83
2021/09/26 07:27:02;;;;;;;26.33;20.50;;;18.50;95.70;;;;;;4763334;30;20081;-82
2021/09/26 07:29:28;;;;;;;28.77;21.05;;;18.60;95.70;;;;;;4763110;30;20043;-82
2021/09/26 07:31:54;;;;;;;27.30;19.73;;;18.60;95.10;;;;;;4762789;30;20239;-82
2021/09/26 07:34:20;;;;;;;29.23;20.75;;;18.70;95.20;;;;;;4762692;30;20142;-83
2021/09/26 07:36:46;;;;;;;28.25;19.15;;;18.70;95.00;;;;;;4762623;30;20036;-83
2021/09/26 07:39:13;;;;;;;24.55;19.48;;;18.80;95.00;;;;;;4761729;30;20044;-83
2021/09/26 07:41:39;;;;;;;;;;;18.90;94.90;;;;;;4738298;30;20347;-82
2021/09/26 07:44:04;;;;;;;25.20;20.73;;;19.00;94.30;;;;;;4757625;30;19910;-81
2021/09/26 07:46:30;;;;;;;34.65;20.45;;;19.10;94.60;;;;;;4742728;30;20062;-79
2021/09/26 07:48:56;;;;;;;27.02;19.98;;;19.30;94.00;;;;;;4753372;30;20044;-79
2021/09/26 07:51:22;;;;;;;29.27;19.33;;;19.40;93.60;;;;;;4749431;30;20032;-79
2021/09/26 07:53:48;;;;;;;27.95;20.92;;;19.50;93.60;;;;;;4749665;30;20036;-79
2021/09/26 07:56:13;;;;;;;25.60;20.08;;;19.60;93.40;;;;;;4749483;30;20103;-79
2021/09/26 07:58:39;;;;;;;28.40;20.08;;;19.70;93.30;;;;;;4750115;30;20050;-79
2021/09/26 08:01:05;;;;;;;33.90;21.45;;;19.80;92.90;;;;;;4749729;30;20032;-81
2021/09/26 08:03:31;;;;;;;26.33;20.40;;;19.80;92.60;;;;;;4752340;30;20035;-82
2021/09/26 08:05:57;;;;;;;24.70;19.52;;;19.90;92.70;;;;;;4737998;30;20047;-82
2021/09/26 08:08:23;;;;;;;26.90;21.83;;;20.00;92.40;;;;;;4766902;30;20059;-78
2021/09/26 08:10:50;;;;;;;31.40;19.98;;;20.20;92.00;;;;;;4748847;30;20036;-78
2021/09/26 08:13:17;;;;;;;24.15;19.90;;;20.30;91.90;;;;;;4733322;30;20036;-82
2021/09/26 08:15:44;;;;;;;22.92;19.52;;;20.40;91.80;;;;;;4734647;30;20051;-81
2021/09/26 08:18:10;;;;;;;25.83;19.38;;;20.60;91.00;;;;;;4748467;30;20108;-79
2021/09/26 08:20:37;;;;;;;25.80;19.23;;;20.70;90.50;;;;;;4719745;30;20041;-79
2021/09/26 08:23:03;;;;;;;22.85;19.25;;;20.70;90.50;;;;;;4719310;30;20032;-79
2021/09/26 08:25:28;;;;;;;27.67;18.85;;;20.80;90.60;;;;;;4725198;30;20036;-78
2021/09/26 08:27:55;;;;;;;28.48;19.90;;;21.00;90.80;;;;;;4760448;30;20032;-78
2021/09/26 08:30:21;;;;;;;30.55;20.42;;;21.10;90.10;;;;;;4784408;30;20157;-78
2021/09/26 08:32:48;;;;;;;20.67;18.25;;;21.10;88.90;;;;;;4758480;30;20056;-79
2021/09/26 08:35:15;;;;;;;23.25;18.70;;;21.20;89.60;;;;;;4766968;30;20036;-80
2021/09/26 08:37:40;;;;;;;;;;;21.50;88.80;;;;;;4767054;30;20032;-80
2021/09/26 08:40:08;;;;;;;27.23;19.27;;;21.50;87.50;;;;;;4750629;30;20207;-80
2021/09/26 08:42:35;;;;;;;29.02;20.58;;;21.60;88.50;;;;;;4766330;30;20028;-80
2021/09/26 08:45:03;;;;;;;25.80;18.38;;;21.80;87.70;;;;;;4751606;30;20111;-80
2021/09/26 08:47:31;;;;;;;29.33;18.55;;;21.90;86.80;;;;;;4742661;30;20044;-80
2021/09/26 08:49:57;;;;;;;28.45;18.13;;;21.90;85.20;;;;;;4760138;30;20037;-80
2021/09/26 08:52:23;;;;;;;22.70;17.95;;;21.90;85.30;;;;;;4749988;30;20102;-80
2021/09/26 08:54:49;;;;;;;27.02;17.15;;;21.90;86.10;;;;;;4751025;30;20032;-81
2021/09/26 08:57:15;;;;;;;28.33;18.50;;;22.00;85.70;;;;;;4750697;30;20040;-80
2021/09/26 08:59:40;;;;;;;23.65;17.75;;;22.10;83.80;;;;;;4765771;30;20039;-80
2021/09/26 09:02:06;;;;;;;23.83;16.98;;;22.20;84.80;;;;;;4765866;30;20039;-79
2021/09/26 09:04:38;;;;;;;24.43;16.07;;;22.30;84.80;;;;;;4751317;30;20039;-79
2021/09/26 09:07:06;;;;;;;19.73;15.93;;;22.40;84.30;;;;;;4759046;30;20032;-79
2021/09/26 09:09:46;;;;;;;20.85;16.48;;;22.60;83.90;;;;;;4735033;30;20036;-80
2021/09/26 09:12:11;;;;;;;19.88;15.63;;;22.60;80.80;;;;;;4733940;30;20056;-79
2021/09/26 09:14:57;;;;;;;22.55;16.27;;;22.50;81.70;;;;;;4733049;30;20029;-80
2021/09/26 09:17:46;;;;;;;22.98;16.33;;;22.60;84.00;;;;;;4734033;30;20344;-80
2021/09/26 09:20:19;;;;;;;26.63;16.70;;;22.70;81.80;;;;;;4733576;30;20049;-79
2021/09/26 09:22:48;;;;;;;28.17;18.25;;;22.90;82.00;;;;;;4747522;30;20031;-79
2021/09/26 09:25:37;;;;;;;19.23;15.52;;;23.00;81.00;;;;;;4733778;30;20037;-79
2021/09/26 09:28:09;;;;;;;17.42;13.98;;;23.30;81.50;;;;;;4742506;30;20328;-79
2021/09/26 09:30:52;;;;;;;19.58;14.80;;;23.50;80.80;;;;;;4744053;30;20066;-79
2021/09/26 09:33:19;;;;;;;21.25;14.57;;;23.60;79.20;;;;;;4728008;30;20028;-78
2021/09/26 09:35:53;;;;;;;19.95;14.65;;;23.70;78.20;;;;;;4751142;30;20101;-78
2021/09/26 09:38:28;;;;;;;23.67;14.57;;;23.70;78.40;;;;;;4735717;30;20051;-78
2021/09/26 09:40:58;;;;;;;19.73;14.15;;;23.70;78.20;;;;;;4749769;30;20029;-78
2021/09/26 09:43:26;;;;;;;21.30;14.80;;;23.80;79.90;;;;;;4747804;30;20036;-78
2021/09/26 09:45:58;;;;;;;20.00;15.70;;;24.00;77.00;;;;;;4735434;30;20063;-79
2021/09/26 09:48:26;;;;;;;17.83;14.93;;;23.90;76.30;;;;;;4766754;30;20099;-78
2021/09/26 09:50:59;;;;;;;18.67;15.43;;;24.00;76.20;;;;;;4750545;30;20028;-78
2021/09/26 09:53:46;;;;;;;19.83;15.57;;;23.90;77.00;;;;;;4765788;30;20351;-78
2021/09/26 09:56:18;;;;;;;18.25;15.20;;;24.10;74.50;;;;;;4736037;30;20114;-78
2021/09/26 09:58:57;;;;;;;19.08;14.98;;;23.90;75.10;;;;;;4750331;30;20220;-78
2021/09/26 10:01:35;;;;;;;22.92;15.65;;;23.70;76.00;;;;;;4736627;30;20395;-78
2021/09/26 10:04:13;;;;;;;16.70;13.90;;;23.70;75.50;;;;;;4764426;30;20032;-77
2021/09/26 10:06:47;;;;;;;17.55;14.35;;;23.80;78.40;;;;;;4749171;30;20089;-77
2021/09/26 10:09:28;;;;;;;17.90;13.38;;;24.00;76.30;;;;;;4749935;30;20066;-77
2021/09/26 10:12:04;;;;;;;17.73;14.90;;;24.20;75.40;;;;;;4749192;30;20086;-78
2021/09/26 10:14:35;;;;;;;22.73;14.73;;;24.10;75.40;;;;;;4765234;30;20323;-77
2021/09/26 10:17:03;;;;;;;18.35;13.75;;;24.10;76.10;;;;;;4749080;30;20052;-77
2021/09/26 10:19:31;;;;;;;21.85;14.45;;;23.90;76.10;;;;;;4734585;30;20085;-77
2021/09/26 10:21:59;;;;;;;21.02;13.85;;;23.70;75.70;;;;;;4748131;30;20390;-77
2021/09/26 10:24:32;;;;;;;20.75;13.93;;;23.70;77.20;;;;;;4748373;30;20043;-77
2021/09/26 10:27:03;;;;;;;17.80;12.75;;;23.70;76.60;;;;;;4734228;30;20107;-77
2021/09/26 10:29:31;;;;;;;16.88;13.32;;;23.70;76.40;;;;;;4734246;30;20028;-77
2021/09/26 10:32:01;;;;;;;19.40;12.35;;;23.60;76.30;;;;;;4733938;30;20111;-78
2021/09/26 10:34:27;;;;;;;19.02;12.40;;;23.60;77.40;;;;;;4748576;30;20039;-78
2021/09/26 10:36:55;;;;;;;22.67;13.63;;;23.80;76.80;;;;;;4735820;30;20047;-78
2021/09/26 10:39:22;;;;;;;20.35;14.43;;;23.90;76.30;;;;;;4735772;30;20032;-78
2021/09/26 10:42:03;;;;;;;16.15;13.95;;;23.90;75.90;;;;;;4750581;30;20355;-78
2021/09/26 10:44:29;;;;;;;17.90;12.77;;;23.90;75.80;;;;;;4735756;30;20028;-78
2021/09/26 10:47:16;;;;;;;17.38;12.80;;;23.90;75.90;;;;;;4735532;30;20063;-78
2021/09/26 10:49:45;;;;;;;20.77;13.27;;;23.90;76.00;;;;;;4765070;30;20046;-78
2021/09/26 10:52:34;;;;;;;16.90;12.60;;;24.00;76.10;;;;;;4765186;30;20092;-77
2021/09/26 10:55:31;;;;;;;16.75;12.77;;;24.20;75.50;;;;;;4750696;30;20370;-78
2021/09/26 10:57:59;;;;;;;26.45;14.15;;;24.50;74.50;;;;;;4677214;30;20047;-78
2021/09/26 11:00:41;;;;;;;15.82;13.07;;;24.90;72.50;;;;;;4662440;30;20039;-77
2021/09/26 11:03:16;;;;;;;20.60;14.50;;;24.90;71.80;;;;;;4675271;30;20042;-78
2021/09/26 11:05:43;;;;;;;17.67;12.90;;;24.80;71.30;;;;;;4661644;30;20038;-78
2021/09/26 11:08:15;;;;;;;15.90;12.35;;;24.80;72.70;;;;;;4677330;30;20112;-78
2021/09/26 11:10:44;;;;;;;19.77;13.60;;;25.00;72.20;;;;;;4677502;30;20034;-79
2021/09/26 11:13:19;;;;;;;16.92;12.13;;;25.20;69.90;;;;;;4676962;30;20098;-78
2021/09/26 11:16:04;;;;;;;16.38;12.98;;;25.30;69.70;;;;;;4661565;30;20285;-78
2021/09/26 11:18:44;;;;;;;16.02;12.30;;;25.20;69.90;;;;;;4645231;30;20035;-78
2021/09/26 11:21:38;;;;;;;16.98;13.27;;;25.40;70.70;;;;;;4645371;30;20050;-78
2021/09/26 11:24:12;;;;;;;18.83;12.63;;;25.60;68.10;;;;;;4659521;30;20043;-78
2021/09/26 11:26:56;;;;;;;20.67;13.93;;;25.50;70.50;;;;;;4659575;30;20086;-78
2021/09/26 11:29:22;;;;;;;15.20;11.65;;;25.60;67.90;;;;;;4659805;30;20354;-78
2021/09/26 11:31:48;;;;;;;24.17;11.70;;;25.70;71.20;;;;;;4631394;30;20110;-79
2021/09/26 11:34:34;;;;;;;17.27;10.35;;;25.90;69.20;;;;;;4686457;30;20340;-78
2021/09/26 11:37:00;;;;;;;15.30;11.00;;;26.10;69.20;;;;;;4747299;30;20228;-79
2021/09/26 11:39:29;;;;;;;13.57;11.20;;;26.20;68.00;;;;;;4746732;30;20040;-78
2021/09/26 11:41:55;;;;;;;18.27;12.30;;;26.30;68.00;;;;;;4732357;30;20042;-79
2021/09/26 11:44:21;;;;;;;22.45;11.50;;;26.30;65.50;;;;;;4732546;30;20079;-78
2021/09/26 11:46:52;;;;;;;20.38;11.35;;;26.00;66.90;;;;;;4755286;30;20051;-78
2021/09/26 11:49:19;;;;;;;14.55;10.95;;;26.00;67.80;;;;;;4733929;30;20033;-78
2021/09/26 11:51:45;;;;;;;17.55;10.45;;;26.00;68.60;;;;;;4749588;30;20040;-78
2021/09/26 11:54:11;;;;;;;15.13;11.23;;;26.10;67.80;;;;;;4735204;30;20036;-78
2021/09/26 11:56:39;;;;;;;16.60;10.73;;;26.00;67.70;;;;;;4749323;30;20032;-78
2021/09/26 11:59:09;;;;;;;16.17;10.88;;;26.10;67.10;;;;;;4749866;30;20344;-78
2021/09/26 12:01:35;;;;;;;13.40;10.32;;;26.30;66.70;;;;;;4735313;30;20066;-78
2021/09/26 12:04:27;;;;;;;13.25;10.90;;;26.20;66.50;;;;;;4765101;30;20024;-78
2021/09/26 12:07:03;;;;;;;21.95;11.30;;;26.20;67.00;;;;;;4696745;30;20045;-78
2021/09/26 12:09:33;;;;;;;;;;;26.20;66.10;;;;;;4697309;30;20119;-78
2021/09/26 12:11:59;;;;;;;16.38;11.00;;;26.00;67.20;;;;;;4710784;30;19910;-78
2021/09/26 12:14:31;;;;;;;13.85;10.30;;;25.90;67.10;;;;;;4696484;30;20049;-79
2021/09/26 12:16:59;;;;;;;16.92;9.38;;;26.00;68.40;;;;;;4711098;30;20075;-78
2021/09/26 12:19:25;;;;;;;12.70;9.10;;;26.00;68.00;;;;;;4696494;30;20328;-78
2021/09/26 12:22:17;;;;;;;14.80;9.27;;;26.10;67.00;;;;;;4696950;30;20030;-78
2021/09/26 12:25:02;;;;;;;15.32;10.07;;;26.20;66.70;;;;;;4697012;30;20045;-79
2021/09/26 12:27:45;;;;;;;9.90;8.30;;;26.20;67.60;;;;;;4711145;30;20038;-79
2021/09/26 12:30:15;;;;;;;12.02;9.27;;;26.50;67.10;;;;;;4696746;30;20084;-79
2021/09/26 12:33:01;;;;;;;12.32;8.70;;;26.60;65.60;;;;;;4711751;30;20096;-79
2021/09/26 12:35:33;;;;;;;13.73;8.98;;;26.60;65.10;;;;;;4711606;30;20063;-78
2021/09/26 12:38:04;;;;;;;16.63;8.75;;;26.60;65.00;;;;;;4711717;30;20057;-78
2021/09/26 12:40:36;;;;;;;10.00;8.77;;;26.50;65.40;;;;;;4696993;30;20037;-79
2021/09/26 12:43:04;;;;;;;15.30;9.50;;;26.50;66.00;;;;;;4708415;30;20036;-78
2021/09/26 12:45:33;;;;;;;16.17;9.98;;;26.50;65.90;;;;;;4765245;30;20077;-78
2021/09/26 12:47:59;;;;;;;15.68;9.90;;;26.50;65.30;;;;;;4750719;30;20036;-79
2021/09/26 12:50:26;;;;;;;16.58;9.77;;;26.50;64.70;;;;;;4752503;30;20116;-79
2021/09/26 12:52:53;;;;;;;;;;;26.30;65.80;;;;;;4738752;30;20044;-78
2021/09/26 12:55:24;;;;;;;12.77;9.77;;;26.40;65.80;;;;;;4752353;30;19918;-78
2021/09/26 12:57:52;;;;;;;12.93;10.43;;;26.40;66.10;;;;;;4768950;30;20052;-79
2021/09/26 13:00:28;;;;;;;16.85;10.30;;;26.50;66.30;;;;;;4752734;30;20062;-79
2021/09/26 13:02:58;;;;;;;12.45;9.18;;;26.50;65.40;;;;;;4738136;30;20039;-78
2021/09/26 13:05:30;;;;;;;14.57;8.82;;;26.60;65.30;;;;;;4750826;30;20168;-79
2021/09/26 13:08:10;;;;;;;10.55;9.10;;;26.60;64.50;;;;;;4768265;30;20078;-79
2021/09/26 13:10:40;;;;;;;16.40;9.15;;;26.60;64.30;;;;;;4737566;30;20036;-79
2021/09/26 13:13:12;;;;;;;14.35;9.50;;;26.60;65.60;;;;;;4737939;30;20107;-79
2021/09/26 13:15:41;;;;;;;15.35;9.20;;;26.70;64.30;;;;;;4751701;30;20282;-79
2021/09/26 13:18:36;;;;;;;12.27;8.60;;;26.80;63.80;;;;;;4766860;30;20024;-78
2021/09/26 13:21:16;;;;;;;16.77;9.38;;;26.80;63.70;;;;;;4752309;30;20184;-79
2021/09/26 13:23:43;;;;;;;15.85;9.20;;;26.70;64.70;;;;;;4752730;30;20024;-79
2021/09/26 13:26:29;;;;;;;16.02;7.88;;;26.80;64.70;;;;;;4751766;30;20064;-79
2021/09/26 13:29:09;;;;;;;15.33;8.37;;;26.90;64.30;;;;;;4752028;30;20044;-78
2021/09/26 13:31:35;;;;;;;10.68;8.43;;;27.00;64.60;;;;;;4752597;30;20328;-78
2021/09/26 13:34:10;;;;;;;15.68;8.25;;;27.10;63.40;;;;;;4767283;30;20096;-78
2021/09/26 13:36:48;;;;;;;10.47;7.43;;;27.00;63.50;;;;;;4752955;30;20040;-78
2021/09/26 13:39:34;;;;;;;9.30;7.78;;;27.10;62.90;;;;;;4752893;30;20032;-79
2021/09/26 13:42:25;;;;;;;8.07;7.28;;;26.90;63.10;;;;;;4767247;30;20032;-78
2021/09/26 13:44:57;;;;;;;12.93;8.50;;;26.90;63.30;;;;;;4751819;30;20059;-79
2021/09/26 13:47:25;;;;;;;11.90;7.45;;;26.80;63.10;;;;;;4752069;30;20174;-79
2021/09/26 13:49:52;;;;;;;12.50;7.25;;;26.80;64.00;;;;;;4766441;30;20034;-78
2021/09/26 13:52:20;;;;;;;9.80;7.78;;;26.90;64.20;;;;;;4751227;30;20063;-78
2021/09/26 13:54:47;;;;;;;10.93;7.50;;;27.00;64.10;;;;;;4766646;30;20204;-79
2021/09/26 13:57:13;;;;;;;8.85;6.72;;;26.90;63.30;;;;;;4751469;30;20047;-78
2021/09/26 13:59:39;;;;;;;8.47;6.50;;;26.80;64.20;;;;;;4765436;30;20047;-78
2021/09/26 14:02:09;;;;;;;9.60;7.40;;;26.70;64.60;;;;;;4751693;30;20088;-78
2021/09/26 14:04:36;;;;;;;12.40;7.20;;;26.70;63.30;;;;;;4752184;30;20062;-79
2021/09/26 14:07:02;;;;;;;9.18;7.40;;;26.60;63.80;;;;;;4767496;30;20064;-79
2021/09/26 14:09:28;;;;;;;11.00;7.55;;;26.60;64.10;;;;;;4752627;30;20351;-78
2021/09/26 14:11:55;;;;;;;10.15;7.43;;;26.40;64.20;;;;;;4767813;30;20036;-79
2021/09/26 14:14:23;;;;;;;14.18;7.55;;;26.20;65.00;;;;;;4751175;30;20043;-78
2021/09/26 14:16:49;;;;;;;16.08;7.82;;;26.10;65.50;;;;;;4756575;30;20048;-79
2021/09/26 14:19:16;;;;;;;13.82;7.20;;;26.20;64.90;;;;;;4733394;30;20078;-78
2021/09/26 14:21:42;;;;;;;11.70;7.65;;;26.20;65.70;;;;;;4733134;30;20049;-79
2021/09/26 14:24:08;;;;;;;8.10;7.17;;;26.20;65.60;;;;;;4732707;30;20098;-79
2021/09/26 14:26:34;;;;;;;12.07;7.00;;;26.10;65.30;;;;;;4733060;30;20044;-79
2021/09/26 14:29:00;;;;;;;16.20;7.75;;;26.20;65.00;;;;;;4750030;30;20032;-79
2021/09/26 14:31:27;;;;;;;23.13;9.23;;;26.10;64.60;;;;;;4735718;30;20051;-79
2021/09/26 14:33:53;;;;;;;13.90;8.18;;;26.10;65.50;;;;;;4766203;30;20040;-79
2021/09/26 14:36:23;;;;;;;9.10;7.57;;;26.00;65.40;;;;;;4749954;30;20078;-79
2021/09/26 14:38:49;;;;;;;15.60;7.78;;;26.00;65.20;;;;;;4750090;30;20028;-79
2021/09/26 14:41:17;;;;;;;14.13;8.00;;;25.90;65.40;;;;;;4750538;30;20028;-79
2021/09/26 14:43:44;;;;;;;9.93;7.35;;;25.70;65.70;;;;;;4735783;30;20039;-79
2021/09/26 14:46:12;;;;;;;12.88;7.50;;;25.60;66.80;;;;;;4747331;30;20061;-78
2021/09/26 14:48:38;;;;;;;18.13;8.00;;;25.60;66.60;;;;;;4748536;30;20033;-79
2021/09/26 14:51:05;;;;;;;16.33;7.68;;;25.60;66.90;;;;;;4747294;30;20078;-78
2021/09/26 14:53:31;;;;;;;14.87;8.00;;;25.60;67.30;;;;;;4747750;30;20208;-79
2021/09/26 14:55:56;;;;;;;13.00;8.05;;;25.50;67.30;;;;;;4732408;30;20301;-79
2021/09/26 14:58:22;;;;;;;14.73;7.63;;;25.50;67.90;;;;;;4748055;30;20088;-79
2021/09/26 15:00:48;;;;;;;14.90;7.65;;;25.50;67.90;;;;;;4747364;30;20051;-79
2021/09/26 15:03:13;;;;;;;10.63;7.88;;;25.50;68.20;;;;;;4747158;30;20028;-79
2021/09/26 15:05:40;;;;;;;15.27;7.78;;;25.40;68.60;;;;;;4747256;30;20033;-79
2021/09/26 15:08:06;;;;;;;;;;;25.40;68.70;;;;;;4732880;30;20228;-79
2021/09/26 15:10:32;;;;;;;13.85;7.78;;;25.40;68.20;;;;;;4746683;30;19910;-79
2021/09/26 15:12:58;;;;;;;11.77;7.30;;;25.40;68.30;;;;;;4732633;30;20037;-79
2021/09/26 15:15:29;;;;;;;19.50;7.35;;;25.40;68.70;;;;;;4746781;30;20029;-79
2021/09/26 15:17:55;;;;;;;9.93;7.65;;;25.40;69.40;;;;;;4748952;30;20064;-79
2021/09/26 15:20:25;;;;;;;16.90;8.13;;;25.40;69.50;;;;;;4764475;30;20036;-79
2021/09/26 15:22:51;;;;;;;13.85;8.27;;;25.40;69.10;;;;;;4750414;30;20032;-79
2021/09/26 15:25:19;;;;;;;11.18;8.65;;;25.30;68.80;;;;;;4764786;30;20028;-79
2021/09/26 15:27:46;;;;;;;9.82;8.50;;;25.20;69.60;;;;;;4750099;30;20367;-79